首页
METAR-TAF:

METAR-TAF

机场 :

索尔诺克, 匈牙利

纬度: 47-07N, 经度: 020-14E, 海拔: 89米

当前天气观测

该预报发布于37分钟前的00:45 UTC
风速2节,风向西北
温度 13°C
湿度 88%
气压 1018 hPa
能见度10公里或以上
1500米以下无云,无积雨云

METAR: LHSN 170045Z 32002KT CAVOK 13/11 Q1018 NOSIG RMK BLU

时间: 03:22 (01:22 UTC)

预报

该预报发布于5小时和7分钟前的20:15 UTC
预报有效从16日的 21点(UTC)到 17日的 06点(UTC)
风速4节,风向北转西北
能见度10公里或以上
1500米以下无云,无积雨云
几率 30% :
短暂存在
从 16日的 21点(UTC)到 16日的 23点(UTC)
能见度10公里或以上
散云层高于4000英尺
多云层高于6000英尺
小阵雨
成为
从 16日的 23点(UTC)到 17日的 01点(UTC)
能見度: 8000
成为
从 17日的 01点(UTC)到 17日的 04点(UTC)
能見度: 5000
轻雾

TAF: LHSN 162015Z 1621/1706 34004KT CAVOK PROB30 TEMPO 1621/1623 9999 -SHRA SCT040 BKN060 BECMG 1623/1701 8000 NSC BECMG 1701/1704 5000 BR MIBCFG

超过4000个机场的气象观测和天气预报(METAR&TAF报告)。

可查询的气象台以黄色和红色小点在地图上表示。

将鼠标移到小点上方,可查看气象台名称。

然后点击查看天气观测和预报。

如需切换地图:点击带黑十字的绿色按钮放大地图;点击带横线的绿色按钮缩小地图;或者点击绿色箭头查看邻近地区的地图。


METAR-TAF: